Time;durP1;ratioP1;P1;durP2;ratioP2;P2;SDS_P1;SDS_P2;PMS_P1;PMS_P2;Temp;Humidity;BMP_temperature;BMP_pressure;BME280_temperature;BME280_humidity;BME280_pressure;Samples;Min_cycle;Max_cycle;Signal;HPM_P1;HPM_P2
2023/07/24 00:00:16;;;;;;;10.50;6.13;;;24.70;82.90;;;;;;5052486;28;20024;-72
2023/07/24 00:02:41;;;;;;;10.00;5.30;;;24.70;82.90;;;;;;5052805;28;20040;-72
2023/07/24 00:05:07;;;;;;;15.32;5.68;;;24.70;82.60;;;;;;5034732;28;20352;-72
2023/07/24 00:07:33;;;;;;;8.02;5.68;;;24.70;82.60;;;;;;5052452;28;20033;-72
2023/07/24 00:09:59;;;;;;;9.20;5.57;;;24.70;82.60;;;;;;5052435;28;20032;-72
2023/07/24 00:12:25;;;;;;;9.07;5.43;;;24.60;82.50;;;;;;5052192;28;20074;-72
2023/07/24 00:14:52;;;;;;;8.30;5.63;;;24.60;82.40;;;;;;5052562;28;20017;-72
2023/07/24 00:17:18;;;;;;;8.50;6.10;;;24.60;82.20;;;;;;5052222;28;20406;-72
2023/07/24 00:19:44;;;;;;;10.43;5.35;;;24.60;82.20;;;;;;5052471;28;20108;-72
2023/07/24 00:22:09;;;;;;;10.95;6.70;;;24.60;82.10;;;;;;5052304;28;20056;-72
2023/07/24 00:24:35;;;;;;;10.98;5.97;;;24.60;82.10;;;;;;5052323;28;20021;-72
2023/07/24 00:27:01;;;;;;;9.00;5.70;;;24.60;82.30;;;;;;5052469;28;20060;-72
2023/07/24 00:29:27;;;;;;;8.07;6.13;;;24.50;82.30;;;;;;5052351;28;20025;-72
2023/07/24 00:31:52;;;;;;;6.70;5.35;;;24.50;82.60;;;;;;5052269;28;20112;-72
2023/07/24 00:34:18;;;;;;;10.88;5.93;;;24.50;82.80;;;;;;5052331;28;20028;-72
2023/07/24 00:36:44;;;;;;;11.13;6.32;;;24.50;82.80;;;;;;5052209;28;20060;-72
2023/07/24 00:39:10;;;;;;;8.85;5.38;;;24.50;82.70;;;;;;5052190;28;20021;-72
2023/07/24 00:41:35;;;;;;;12.85;6.03;;;24.60;82.80;;;;;;5052301;28;20033;-72
2023/07/24 00:44:01;;;;;;;8.32;5.72;;;24.60;82.70;;;;;;5052376;28;20033;-72
2023/07/24 00:46:31;;;;;;;10.43;5.70;;;24.50;82.60;;;;;;5052197;28;20036;-72
2023/07/24 00:48:59;;;;;;;11.15;5.53;;;24.50;82.60;;;;;;5052263;28;20017;-72
2023/07/24 00:51:27;;;;;;;8.50;5.55;;;24.60;82.60;;;;;;5052288;28;20104;-72
2023/07/24 00:53:55;;;;;;;7.90;5.82;;;24.60;83.10;;;;;;5052320;28;20028;-72
2023/07/24 00:56:22;;;;;;;9.60;5.68;;;24.60;83.20;;;;;;5052234;28;20677;-72
2023/07/24 00:58:48;;;;;;;9.23;6.47;;;24.60;83.10;;;;;;5049718;28;20021;-72
2023/07/24 01:01:16;;;;;;;9.90;5.32;;;24.50;82.80;;;;;;5051372;28;20486;-72
2023/07/24 01:03:43;;;;;;;12.75;5.82;;;24.60;82.90;;;;;;5053103;28;20056;-72
2023/07/24 01:06:09;;;;;;;15.93;5.95;;;24.50;83.00;;;;;;5055370;28;20025;-72
2023/07/24 01:08:36;;;;;;;8.93;5.30;;;24.50;83.00;;;;;;5055470;28;20033;-72
2023/07/24 01:11:15;;;;;;;8.20;5.68;;;24.60;83.00;;;;;;5055228;28;20091;-72
2023/07/24 01:13:46;;;;;;;8.05;5.65;;;24.50;83.00;;;;;;5055164;28;20031;-72
2023/07/24 01:16:18;;;;;;;;;;;24.50;82.90;;;;;;5055939;28;20486;-72
2023/07/24 01:18:45;;;;;;;7.70;5.32;;;24.50;83.00;;;;;;5055605;28;20328;-72
2023/07/24 01:21:13;;;;;;;11.60;5.70;;;24.50;83.20;;;;;;5054851;28;20067;-72
2023/07/24 01:23:57;;;;;;;14.73;6.38;;;24.50;83.20;;;;;;5055037;28;20094;-72
2023/07/24 01:26:23;;;;;;;8.63;5.82;;;24.50;83.30;;;;;;5055307;28;20032;-72
2023/07/24 01:28:49;;;;;;;10.48;5.60;;;24.40;83.70;;;;;;5055145;28;20455;-72
2023/07/24 01:31:16;;;;;;;10.68;5.75;;;24.40;83.50;;;;;;5055203;28;20083;-72
2023/07/24 01:33:43;;;;;;;8.95;6.20;;;24.40;83.20;;;;;;5054975;28;20090;-72
2023/07/24 01:36:09;;;;;;;9.80;5.43;;;24.40;83.10;;;;;;5054916;28;20576;-72
2023/07/24 01:38:36;;;;;;;11.38;5.70;;;24.30;83.10;;;;;;5054997;28;20502;-72
2023/07/24 01:41:03;;;;;;;9.07;5.35;;;24.30;83.10;;;;;;5054951;28;20032;-72
2023/07/24 01:43:31;;;;;;;8.88;5.57;;;24.40;83.50;;;;;;5054798;28;20017;-72
2023/07/24 01:45:58;;;;;;;9.80;5.95;;;24.40;83.50;;;;;;5054715;28;20052;-72
2023/07/24 01:48:24;;;;;;;12.88;5.60;;;24.30;83.50;;;;;;5053387;28;20124;-72
2023/07/24 01:50:50;;;;;;;8.93;5.78;;;24.40;83.90;;;;;;5054694;28;20548;-72
2023/07/24 01:53:16;;;;;;;10.27;5.32;;;24.30;84.00;;;;;;5054796;28;20029;-72
2023/07/24 01:55:42;;;;;;;11.23;5.13;;;24.40;83.90;;;;;;5054623;28;20407;-72
2023/07/24 01:58:07;;;;;;;8.02;5.57;;;24.30;83.90;;;;;;5054716;28;20060;-72
2023/07/24 02:00:33;;;;;;;8.77;5.65;;;24.30;83.90;;;;;;5054511;28;20105;-72
2023/07/24 02:02:59;;;;;;;9.25;5.72;;;24.30;83.90;;;;;;5054601;28;20023;-72
2023/07/24 02:05:26;;;;;;;15.93;5.57;;;24.30;84.10;;;;;;5054516;28;20391;-72
2023/07/24 02:07:51;;;;;;;9.13;6.03;;;24.30;84.00;;;;;;5054488;28;20032;-72
2023/07/24 02:10:17;;;;;;;11.38;5.70;;;24.30;84.20;;;;;;5054190;28;20029;-71
2023/07/24 02:12:43;;;;;;;8.85;5.57;;;24.30;84.30;;;;;;5053462;28;20033;-71
2023/07/24 02:15:09;;;;;;;10.43;5.93;;;24.30;84.20;;;;;;5054288;28;20082;-72
2023/07/24 02:17:35;;;;;;;10.13;5.70;;;24.30;84.40;;;;;;5054210;28;20048;-72
2023/07/24 02:20:01;;;;;;;11.30;5.65;;;24.30;84.60;;;;;;5036336;28;20102;-72
2023/07/24 02:22:27;;;;;;;8.82;5.43;;;24.20;84.70;;;;;;5054076;28;20060;-72
2023/07/24 02:24:52;;;;;;;11.32;5.35;;;24.20;84.70;;;;;;5054084;28;20021;-72
2023/07/24 02:27:31;;;;;;;9.15;5.75;;;24.20;84.70;;;;;;5054013;28;20029;-72
2023/07/24 02:29:57;;;;;;;10.80;5.45;;;24.20;84.70;;;;;;5054013;28;20534;-72
2023/07/24 02:32:23;;;;;;;9.02;5.82;;;24.20;84.90;;;;;;5054013;28;20039;-72
2023/07/24 02:34:52;;;;;;;9.02;5.95;;;24.20;84.90;;;;;;5053801;28;20017;-72
2023/07/24 02:37:19;;;;;;;11.75;6.35;;;24.10;84.90;;;;;;5053804;28;20432;-71
2023/07/24 02:39:45;;;;;;;9.50;6.22;;;24.10;84.80;;;;;;5053732;28;20025;-72
2023/07/24 02:42:11;;;;;;;10.43;5.28;;;24.10;84.80;;;;;;5053700;28;20040;-72
2023/07/24 02:44:37;;;;;;;14.48;6.35;;;24.10;85.10;;;;;;5053684;28;20017;-72
2023/07/24 02:47:03;;;;;;;10.18;6.10;;;24.10;85.10;;;;;;5053778;28;20029;-72
2023/07/24 02:49:29;;;;;;;10.43;5.95;;;24.10;85.10;;;;;;5053519;28;20095;-72
2023/07/24 02:51:55;;;;;;;9.05;5.72;;;24.10;85.00;;;;;;5053715;28;20025;-72
2023/07/24 02:54:21;;;;;;;12.15;5.90;;;24.10;85.10;;;;;;5053581;28;20027;-72
2023/07/24 02:56:46;;;;;;;8.93;6.20;;;24.10;85.20;;;;;;5053366;28;20033;-72
2023/07/24 02:59:12;;;;;;;12.43;5.82;;;24.10;85.30;;;;;;5053770;28;20017;-72
2023/07/24 03:01:38;;;;;;;11.02;6.57;;;24.00;85.30;;;;;;5053296;28;20079;-72
2023/07/24 03:04:05;;;;;;;9.15;5.60;;;24.00;85.50;;;;;;5052055;28;20021;-72
2023/07/24 03:06:31;;;;;;;14.43;5.97;;;24.10;85.70;;;;;;5053118;28;20496;-72
2023/07/24 03:08:57;;;;;;;13.10;6.13;;;24.00;86.00;;;;;;5053127;28;20052;-72
2023/07/24 03:11:22;;;;;;;13.98;6.50;;;24.00;86.20;;;;;;5052975;28;20064;-72
2023/07/24 03:13:48;;;;;;;8.82;5.78;;;24.00;86.20;;;;;;5053011;28;20114;-72
2023/07/24 03:16:14;;;;;;;10.13;5.72;;;24.00;86.40;;;;;;5052976;28;20071;-72
2023/07/24 03:18:40;;;;;;;8.43;5.90;;;24.00;86.60;;;;;;5053233;28;20052;-72
2023/07/24 03:21:05;;;;;;;11.50;6.13;;;23.90;86.80;;;;;;5053154;28;20471;-72
2023/07/24 03:23:31;;;;;;;9.45;6.70;;;24.00;86.80;;;;;;5052950;28;20024;-72
2023/07/24 03:25:57;;;;;;;10.43;6.35;;;24.00;86.70;;;;;;5052776;28;20028;-72
2023/07/24 03:28:23;;;;;;;9.63;6.10;;;23.90;86.70;;;;;;5052887;28;20024;-72
2023/07/24 03:30:49;;;;;;;14.40;6.13;;;23.90;86.80;;;;;;5052701;28;20041;-72
2023/07/24 03:33:14;;;;;;;16.00;6.68;;;23.90;87.00;;;;;;5052795;28;20028;-72
2023/07/24 03:35:40;;;;;;;11.98;6.38;;;23.90;87.00;;;;;;5052848;28;20025;-72
2023/07/24 03:38:06;;;;;;;12.38;5.90;;;23.90;87.10;;;;;;5052726;28;20036;-72
2023/07/24 03:40:32;;;;;;;11.05;6.10;;;23.90;87.10;;;;;;5051549;28;20021;-72
2023/07/24 03:42:58;;;;;;;9.63;6.65;;;23.90;87.30;;;;;;5052948;28;20059;-72
2023/07/24 03:45:23;;;;;;;11.18;6.40;;;23.90;87.40;;;;;;5052721;28;20047;-72
2023/07/24 03:47:49;;;;;;;9.65;5.63;;;23.90;87.60;;;;;;5052520;28;20091;-72
2023/07/24 03:50:15;;;;;;;9.38;6.60;;;23.90;87.70;;;;;;5052654;28;20103;-72
2023/07/24 03:52:41;;;;;;;10.73;6.35;;;23.80;87.60;;;;;;5052769;28;20051;-72
2023/07/24 03:55:07;;;;;;;13.73;6.40;;;23.90;87.60;;;;;;5052656;28;20021;-72
2023/07/24 03:57:33;;;;;;;14.15;6.80;;;23.80;87.70;;;;;;5052608;28;20033;-72
2023/07/24 03:59:59;;;;;;;10.50;6.32;;;23.80;87.80;;;;;;5052431;28;20543;-72
2023/07/24 04:02:24;;;;;;;10.65;6.70;;;23.80;87.80;;;;;;5052741;28;20025;-72
2023/07/24 04:04:50;;;;;;;14.80;6.38;;;23.80;87.80;;;;;;5052815;28;20091;-72
2023/07/24 04:07:16;;;;;;;14.38;7.10;;;23.80;88.00;;;;;;5052736;28;20074;-72
2023/07/24 04:09:42;;;;;;;12.40;6.45;;;23.80;88.00;;;;;;5052433;28;20024;-72
2023/07/24 04:12:08;;;;;;;10.90;6.32;;;23.80;88.00;;;;;;5052446;28;20041;-72
2023/07/24 04:14:33;;;;;;;20.60;7.82;;;23.80;87.90;;;;;;5052572;28;20025;-72
2023/07/24 04:16:59;;;;;;;15.73;7.20;;;23.80;88.00;;;;;;5052389;28;20041;-72
2023/07/24 04:19:25;;;;;;;8.80;6.32;;;23.80;88.20;;;;;;5052606;28;20064;-72
2023/07/24 04:21:51;;;;;;;10.38;6.30;;;23.70;88.40;;;;;;5052508;28;20040;-72
2023/07/24 04:24:16;;;;;;;9.25;5.93;;;23.80;88.70;;;;;;5052237;28;20021;-72
2023/07/24 04:26:42;;;;;;;9.80;6.20;;;23.80;88.80;;;;;;5052478;28;20037;-72
2023/07/24 04:29:08;;;;;;;12.57;6.47;;;23.80;88.90;;;;;;5052452;28;20025;-72
2023/07/24 04:31:34;;;;;;;9.90;6.70;;;23.80;89.00;;;;;;5052368;28;20491;-72
2023/07/24 04:34:00;;;;;;;9.45;6.00;;;23.80;89.30;;;;;;5052370;28;20018;-72
2023/07/24 04:36:25;;;;;;;11.02;6.38;;;23.80;89.30;;;;;;5054851;28;20475;-72
2023/07/24 04:38:51;;;;;;;11.98;6.13;;;23.80;89.30;;;;;;5056169;28;20029;-72
2023/07/24 04:41:17;;;;;;;14.45;6.38;;;23.80;89.10;;;;;;5056036;28;20025;-72
2023/07/24 04:43:42;;;;;;;10.82;6.10;;;23.80;89.00;;;;;;5056174;28;20057;-72
2023/07/24 04:46:08;;;;;;;13.75;6.28;;;23.80;89.00;;;;;;5056006;28;20029;-73
2023/07/24 04:48:34;;;;;;;16.30;6.93;;;23.80;89.00;;;;;;5056162;28;20140;-72
2023/07/24 04:51:00;;;;;;;12.57;6.20;;;23.90;89.00;;;;;;5055986;28;20494;-72
2023/07/24 04:53:25;;;;;;;14.70;7.07;;;23.80;89.10;;;;;;5055531;28;20040;-72
2023/07/24 04:55:51;;;;;;;12.73;6.80;;;23.90;89.20;;;;;;5055768;28;20020;-72
2023/07/24 04:58:17;;;;;;;11.65;6.22;;;23.90;89.10;;;;;;5055806;28;20025;-72
2023/07/24 05:00:43;;;;;;;11.10;6.38;;;23.90;89.00;;;;;;5055884;28;20083;-72
2023/07/24 05:03:10;;;;;;;12.48;6.43;;;23.90;89.00;;;;;;5055621;28;20021;-72
2023/07/24 05:05:37;;;;;;;10.95;6.10;;;24.00;89.10;;;;;;5055593;28;20045;-72
2023/07/24 05:08:03;;;;;;;9.75;6.40;;;24.00;89.20;;;;;;5037948;28;20021;-72
2023/07/24 05:10:29;;;;;;;10.57;6.55;;;24.00;89.00;;;;;;5055487;28;20094;-72
2023/07/24 05:12:56;;;;;;;10.35;6.32;;;24.00;88.90;;;;;;5055286;28;20013;-72
2023/07/24 05:15:22;;;;;;;18.27;6.43;;;24.00;88.90;;;;;;5055561;28;20033;-72
2023/07/24 05:17:48;;;;;;;10.02;6.10;;;24.00;89.00;;;;;;5055221;28;20052;-72
2023/07/24 05:20:14;;;;;;;13.20;6.40;;;24.10;89.10;;;;;;5055291;28;20033;-72
2023/07/24 05:22:39;;;;;;;14.20;6.80;;;24.10;89.20;;;;;;5055265;28;20121;-72
2023/07/24 05:25:05;;;;;;;12.70;6.72;;;24.20;89.30;;;;;;5055295;28;20029;-71
2023/07/24 05:27:31;;;;;;;12.85;6.60;;;24.20;89.30;;;;;;5055045;28;20028;-72
2023/07/24 05:29:57;;;;;;;13.77;6.63;;;24.20;89.10;;;;;;5055104;28;20037;-71
2023/07/24 05:32:23;;;;;;;9.07;6.43;;;24.20;89.00;;;;;;5055268;28;20017;-72
2023/07/24 05:34:49;;;;;;;11.45;6.18;;;24.30;88.90;;;;;;5055155;28;20356;-72
2023/07/24 05:37:14;;;;;;;10.50;6.50;;;24.30;88.80;;;;;;5054914;28;20096;-72
2023/07/24 05:39:40;;;;;;;12.15;6.57;;;24.30;88.70;;;;;;5054943;28;20029;-72
2023/07/24 05:42:06;;;;;;;13.25;6.95;;;24.30;88.70;;;;;;5054957;28;20025;-72
2023/07/24 05:44:32;;;;;;;10.98;6.93;;;24.30;88.80;;;;;;5054902;28;20036;-72
2023/07/24 05:46:58;;;;;;;12.50;6.00;;;24.40;88.80;;;;;;5055025;28;20029;-72
2023/07/24 05:49:24;;;;;;;13.27;6.60;;;24.40;88.70;;;;;;5054924;28;20025;-72
2023/07/24 05:51:50;;;;;;;11.43;6.57;;;24.40;88.50;;;;;;5054822;28;20114;-72
2023/07/24 05:54:15;;;;;;;14.32;7.10;;;24.40;88.30;;;;;;5054754;28;20032;-72
2023/07/24 05:56:41;;;;;;;14.75;6.43;;;24.50;88.40;;;;;;5054867;28;20478;-72
2023/07/24 05:59:07;;;;;;;9.75;6.63;;;24.50;88.40;;;;;;5054705;28;20071;-72
2023/07/24 06:01:33;;;;;;;15.77;7.80;;;24.50;88.40;;;;;;5053394;28;20119;-72
2023/07/24 06:03:58;;;;;;;12.35;7.50;;;24.50;88.60;;;;;;5054645;28;20052;-72
2023/07/24 06:06:24;;;;;;;20.60;7.28;;;24.50;88.70;;;;;;5054427;28;20025;-72
2023/07/24 06:08:50;;;;;;;16.23;7.00;;;24.50;88.40;;;;;;5054355;28;20028;-72
2023/07/24 06:11:16;;;;;;;9.98;6.63;;;24.60;88.40;;;;;;5054647;28;20360;-72
2023/07/24 06:13:42;;;;;;;11.43;7.05;;;24.60;88.50;;;;;;5055060;28;20021;-73
2023/07/24 06:16:08;;;;;;;11.20;7.40;;;24.70;88.60;;;;;;5054522;28;20557;-73
2023/07/24 06:18:34;;;;;;;13.25;6.47;;;24.70;88.70;;;;;;5053995;28;20132;-72
2023/07/24 06:21:00;;;;;;;14.48;6.70;;;24.70;88.80;;;;;;5054156;28;20108;-72
2023/07/24 06:23:26;;;;;;;9.95;6.30;;;24.70;88.90;;;;;;5054067;28;20174;-73
2023/07/24 06:25:52;;;;;;;10.00;6.45;;;24.80;89.00;;;;;;5054629;28;20025;-72
2023/07/24 06:28:18;;;;;;;16.02;6.95;;;24.80;88.70;;;;;;5054266;28;20100;-72
2023/07/24 06:30:44;;;;;;;8.68;5.93;;;24.80;88.30;;;;;;5053899;28;20069;-72
2023/07/24 06:33:10;;;;;;;12.55;6.35;;;24.90;88.30;;;;;;5054132;28;20041;-72
2023/07/24 06:35:36;;;;;;;13.27;6.88;;;25.00;88.50;;;;;;5053821;28;20033;-72
2023/07/24 06:38:02;;;;;;;13.38;6.85;;;25.00;88.30;;;;;;5054054;28;20021;-72
2023/07/24 06:40:28;;;;;;;14.30;7.15;;;25.10;88.50;;;;;;5053953;28;20111;-73
2023/07/24 06:42:54;;;;;;;14.40;6.38;;;25.10;88.20;;;;;;5052444;28;20021;-72
2023/07/24 06:45:19;;;;;;;13.32;6.68;;;25.10;88.20;;;;;;5053840;28;20108;-72
2023/07/24 06:47:45;;;;;;;12.80;6.55;;;25.10;88.20;;;;;;5053845;28;20395;-72
2023/07/24 06:50:11;;;;;;;9.60;6.43;;;25.10;87.90;;;;;;5053664;28;20033;-72
2023/07/24 06:52:36;;;;;;;13.70;6.90;;;25.20;87.90;;;;;;5053633;28;20074;-72
2023/07/24 06:55:03;;;;;;;10.70;6.53;;;25.20;87.80;;;;;;5053727;28;20025;-72
2023/07/24 06:57:28;;;;;;;14.77;7.82;;;25.20;88.20;;;;;;5053489;28;20031;-72
2023/07/24 06:59:54;;;;;;;13.02;6.75;;;25.20;88.30;;;;;;5052952;28;20108;-72
2023/07/24 07:02:20;;;;;;;16.48;7.43;;;25.30;88.20;;;;;;5035419;28;20550;-72
2023/07/24 07:04:46;;;;;;;18.55;6.85;;;25.30;88.80;;;;;;5053242;28;20025;-72
2023/07/24 07:07:11;;;;;;;17.55;7.40;;;25.40;89.20;;;;;;5053239;28;20053;-72
2023/07/24 07:09:37;;;;;;;11.63;7.22;;;25.40;89.40;;;;;;5053364;28;20029;-72
2023/07/24 07:12:03;;;;;;;11.13;7.28;;;25.50;89.30;;;;;;5053088;28;20032;-72
2023/07/24 07:14:29;;;;;;;18.27;7.20;;;25.60;89.40;;;;;;5053123;28;20029;-72
2023/07/24 07:16:54;;;;;;;16.33;7.10;;;25.70;89.10;;;;;;5053092;28;20111;-72
2023/07/24 07:19:20;;;;;;;11.57;6.75;;;25.70;88.60;;;;;;5052985;28;20033;-72
2023/07/24 07:21:46;;;;;;;13.18;7.05;;;25.80;88.50;;;;;;5052930;28;20096;-72
2023/07/24 07:24:11;;;;;;;16.10;6.95;;;25.80;88.40;;;;;;5051786;28;20064;-72
2023/07/24 07:26:37;;;;;;;10.25;5.82;;;25.90;88.10;;;;;;5053136;28;20375;-72
2023/07/24 07:29:03;;;;;;;12.23;7.50;;;25.90;87.70;;;;;;5053025;28;20036;-72
2023/07/24 07:31:28;;;;;;;14.60;7.05;;;25.90;87.70;;;;;;5052762;28;20032;-72
2023/07/24 07:33:54;;;;;;;14.32;6.75;;;26.00;87.70;;;;;;5052944;28;20028;-72
2023/07/24 07:36:22;;;;;;;11.85;6.50;;;26.00;87.90;;;;;;5052671;28;20048;-72
2023/07/24 07:38:48;;;;;;;14.05;7.32;;;26.10;88.00;;;;;;5052874;28;20108;-72
2023/07/24 07:41:14;;;;;;;15.70;7.20;;;26.10;88.10;;;;;;5053120;28;20486;-72
2023/07/24 07:43:40;;;;;;;11.60;7.20;;;26.10;88.80;;;;;;5052992;28;20048;-72
2023/07/24 07:46:06;;;;;;;13.77;7.72;;;26.20;88.80;;;;;;5052846;28;20032;-72
2023/07/24 07:48:32;;;;;;;10.35;7.07;;;26.20;88.40;;;;;;5052553;28;20098;-72
2023/07/24 07:50:58;;;;;;;14.65;7.88;;;26.20;88.60;;;;;;5052702;28;20036;-72
2023/07/24 07:53:24;;;;;;;13.57;7.18;;;26.20;88.40;;;;;;5052555;28;20497;-72
2023/07/24 07:55:57;;;;;;;14.15;7.22;;;26.20;88.40;;;;;;5052653;28;20021;-72
2023/07/24 07:58:23;;;;;;;14.15;7.47;;;26.20;88.60;;;;;;5052642;28;20020;-72
2023/07/24 08:00:49;;;;;;;11.32;7.57;;;26.20;88.30;;;;;;5052621;28;20025;-72
2023/07/24 08:03:15;;;;;;;11.20;7.60;;;26.30;88.10;;;;;;5052621;28;20104;-72
2023/07/24 08:05:41;;;;;;;13.32;7.43;;;26.30;88.10;;;;;;5052861;28;20092;-72
2023/07/24 08:08:06;;;;;;;14.43;6.95;;;26.30;88.30;;;;;;5052827;28;20036;-72
2023/07/24 08:10:32;;;;;;;12.00;7.57;;;26.40;88.70;;;;;;5053559;28;20028;-72
2023/07/24 08:12:58;;;;;;;14.55;7.57;;;26.40;88.40;;;;;;5056635;28;20029;-72
2023/07/24 08:15:24;;;;;;;12.00;7.05;;;26.50;88.10;;;;;;5056534;28;20028;-72
2023/07/24 08:17:49;;;;;;;12.82;6.78;;;26.50;87.60;;;;;;5056209;28;20048;-72
2023/07/24 08:20:15;;;;;;;10.43;6.93;;;26.60;87.30;;;;;;5056410;28;20024;-72
2023/07/24 08:22:41;;;;;;;14.50;7.35;;;26.70;86.30;;;;;;5038636;28;20040;-72
2023/07/24 08:25:07;;;;;;;11.65;7.47;;;26.70;85.80;;;;;;5038296;28;20112;-72
2023/07/24 08:27:33;;;;;;;13.57;7.05;;;26.90;84.80;;;;;;5056439;28;20087;-72
2023/07/24 08:29:58;;;;;;;12.63;7.40;;;26.90;83.40;;;;;;5056250;28;20068;-72
2023/07/24 08:32:24;;;;;;;10.70;7.15;;;27.00;83.20;;;;;;5056243;28;20029;-72
2023/07/24 08:34:50;;;;;;;12.20;6.90;;;27.00;84.00;;;;;;5056078;28;20063;-72
2023/07/24 08:37:16;;;;;;;12.20;7.80;;;27.10;83.60;;;;;;5056180;28;20079;-72
2023/07/24 08:39:41;;;;;;;11.98;7.10;;;27.20;82.80;;;;;;5056255;28;20024;-72
2023/07/24 08:42:11;;;;;;;20.65;8.38;;;27.20;83.00;;;;;;5056328;28;20025;-72
2023/07/24 08:44:38;;;;;;;11.85;7.97;;;27.30;82.90;;;;;;5056107;28;20100;-72
2023/07/24 08:47:05;;;;;;;10.68;6.68;;;27.40;82.70;;;;;;5056184;28;20029;-72
2023/07/24 08:49:33;;;;;;;15.90;8.23;;;27.40;82.80;;;;;;5055965;28;20021;-72
2023/07/24 08:52:00;;;;;;;10.25;7.20;;;27.40;81.80;;;;;;5056135;28;20025;-72
2023/07/24 08:54:26;;;;;;;18.70;8.57;;;27.50;80.30;;;;;;5055731;28;20021;-72
2023/07/24 08:56:55;;;;;;;13.88;7.95;;;27.50;80.00;;;;;;5055780;28;20029;-72
2023/07/24 08:59:21;;;;;;;14.75;7.93;;;27.50;80.00;;;;;;5055568;28;20075;-72
2023/07/24 09:01:47;;;;;;;12.50;7.22;;;27.60;80.50;;;;;;5055718;28;20013;-72
2023/07/24 09:04:12;;;;;;;16.65;8.13;;;27.60;79.90;;;;;;5055707;28;20424;-72
2023/07/24 09:06:38;;;;;;;12.68;8.07;;;27.70;79.10;;;;;;5055733;28;20064;-72
2023/07/24 09:09:14;;;;;;;12.75;8.13;;;27.70;79.40;;;;;;5055625;28;20021;-73
2023/07/24 09:11:50;;;;;;;12.10;8.20;;;27.80;79.60;;;;;;5055594;28;20435;-72
2023/07/24 09:14:30;;;;;;;15.23;8.15;;;27.80;79.70;;;;;;5055457;28;20473;-72
2023/07/24 09:17:07;;;;;;;14.57;7.90;;;27.90;79.70;;;;;;5073145;22;20045;-71
2023/07/24 09:19:33;;;;;;;12.30;8.13;;;27.90;80.00;;;;;;5055569;28;20021;-71
2023/07/24 09:22:09;;;;;;;10.75;8.02;;;27.90;79.60;;;;;;5054938;28;20029;-71
2023/07/24 09:24:34;;;;;;;12.98;7.63;;;28.00;80.00;;;;;;5055197;28;20032;-71
2023/07/24 09:27:00;;;;;;;17.75;8.90;;;28.00;79.60;;;;;;5055289;28;20021;-71
2023/07/24 09:29:33;;;;;;;12.30;8.05;;;28.10;79.90;;;;;;5055177;28;20413;-71
2023/07/24 09:31:59;;;;;;;15.05;8.63;;;28.20;80.10;;;;;;5055333;28;20036;-71
2023/07/24 09:34:25;;;;;;;13.35;8.80;;;28.30;79.00;;;;;;5055136;28;20024;-71
2023/07/24 09:36:51;;;;;;;14.10;8.93;;;28.40;78.70;;;;;;5054921;28;20032;-71
2023/07/24 09:39:24;;;;;;;15.05;9.27;;;28.40;77.90;;;;;;5055122;28;20074;-71
2023/07/24 09:41:50;;;;;;;15.10;8.45;;;28.40;78.20;;;;;;5054999;28;20111;-71
2023/07/24 09:44:15;;;;;;;21.30;8.80;;;28.40;77.10;;;;;;5054980;28;20021;-71
2023/07/24 09:46:43;;;;;;;18.88;9.50;;;28.40;76.90;;;;;;5053712;28;20036;-71
2023/07/24 09:49:10;;;;;;;15.32;8.98;;;28.50;75.80;;;;;;5055040;28;20029;-71
2023/07/24 09:51:37;;;;;;;15.23;9.38;;;28.50;75.70;;;;;;5054751;28;20558;-71
2023/07/24 09:54:28;;;;;;;17.88;9.10;;;28.60;76.00;;;;;;5054748;28;20065;-71
2023/07/24 09:56:55;;;;;;;16.23;9.65;;;28.60;75.60;;;;;;5054748;28;20391;-71
2023/07/24 09:59:23;;;;;;;12.75;8.68;;;28.60;76.50;;;;;;5054548;28;20047;-71
2023/07/24 10:01:49;;;;;;;13.27;9.05;;;28.60;76.20;;;;;;5054611;28;20104;-71
2023/07/24 10:04:15;;;;;;;17.55;8.38;;;28.60;75.30;;;;;;5054920;28;20438;-71
2023/07/24 10:06:43;;;;;;;14.00;9.30;;;28.50;75.70;;;;;;5054587;28;20044;-71
2023/07/24 10:09:09;;;;;;;13.98;8.82;;;28.40;75.40;;;;;;5054641;28;20021;-71
2023/07/24 10:11:35;;;;;;;16.25;9.00;;;28.40;75.90;;;;;;5054417;28;20036;-71
2023/07/24 10:14:01;;;;;;;15.70;9.48;;;28.30;76.20;;;;;;5054594;28;20096;-71
2023/07/24 10:16:27;;;;;;;15.13;9.13;;;28.30;77.60;;;;;;5054251;28;20017;-72
2023/07/24 10:18:53;;;;;;;22.05;9.52;;;28.20;77.80;;;;;;5054387;28;20036;-71
2023/07/24 10:21:27;;;;;;;20.42;9.27;;;28.10;78.30;;;;;;5054247;28;20162;-71
2023/07/24 10:23:52;;;;;;;13.63;8.93;;;28.10;78.60;;;;;;5054154;28;20075;-71
2023/07/24 10:26:25;;;;;;;15.85;9.60;;;28.10;78.50;;;;;;5054157;28;20492;-71
2023/07/24 10:28:51;;;;;;;13.82;9.30;;;28.00;79.00;;;;;;5054076;28;20021;-72
2023/07/24 10:31:20;;;;;;;14.40;9.30;;;28.00;79.30;;;;;;5054134;28;20037;-72
2023/07/24 10:33:46;;;;;;;18.60;9.23;;;28.10;79.00;;;;;;5053219;28;20040;-71
2023/07/24 10:36:13;;;;;;;19.42;8.63;;;28.10;79.30;;;;;;5054148;28;20029;-71
2023/07/24 10:38:43;;;;;;;13.32;8.48;;;28.20;80.40;;;;;;5053819;28;20053;-71
2023/07/24 10:41:10;;;;;;;16.08;8.63;;;28.30;79.10;;;;;;5053786;28;20021;-72
2023/07/24 10:43:44;;;;;;;12.85;8.98;;;28.50;78.70;;;;;;5053619;28;20384;-72
2023/07/24 10:46:10;;;;;;;16.85;8.38;;;28.50;79.30;;;;;;5053823;28;20053;-71
2023/07/24 10:48:36;;;;;;;13.38;8.57;;;28.50;78.40;;;;;;5053672;28;20526;-72
2023/07/24 10:51:09;;;;;;;13.82;8.65;;;28.50;78.90;;;;;;5053663;28;20065;-72
2023/07/24 10:53:38;;;;;;;18.05;8.85;;;28.50;79.20;;;;;;5053729;28;20025;-72
2023/07/24 10:56:06;;;;;;;12.85;8.35;;;28.50;78.90;;;;;;5053653;28;20025;-72
2023/07/24 10:58:32;;;;;;;12.73;8.50;;;28.40;79.00;;;;;;5053628;28;20025;-72
2023/07/24 11:00:59;;;;;;;13.77;8.60;;;28.40;79.10;;;;;;5053733;28;20025;-72
2023/07/24 11:03:25;;;;;;;11.95;8.35;;;28.40;79.30;;;;;;5053328;28;20029;-72
2023/07/24 11:05:51;;;;;;;14.93;8.50;;;28.30;79.80;;;;;;5053840;28;20435;-72
2023/07/24 11:08:19;;;;;;;15.63;8.18;;;28.30;80.00;;;;;;5053342;28;20028;-72
2023/07/24 11:10:49;;;;;;;17.25;8.20;;;28.30;80.30;;;;;;5053169;28;20039;-72
2023/07/24 11:13:17;;;;;;;11.32;8.38;;;28.30;80.30;;;;;;5053286;28;20501;-72
2023/07/24 11:15:43;;;;;;;13.65;9.07;;;28.20;80.90;;;;;;5053187;28;20025;-72
2023/07/24 11:18:10;;;;;;;15.55;9.18;;;28.20;80.90;;;;;;5051761;28;20510;-72
2023/07/24 11:20:43;;;;;;;14.15;8.20;;;28.20;81.20;;;;;;5051899;28;20029;-72
2023/07/24 11:23:10;;;;;;;14.70;8.23;;;28.20;81.00;;;;;;5053222;28;20021;-72
2023/07/24 11:25:37;;;;;;;17.85;8.40;;;28.10;80.90;;;;;;5053251;28;20025;-72
2023/07/24 11:28:08;;;;;;;13.80;7.82;;;28.10;81.20;;;;;;5053192;28;20028;-72
2023/07/24 11:30:34;;;;;;;15.43;8.43;;;28.10;82.00;;;;;;5053134;28;20033;-72
2023/07/24 11:33:04;;;;;;;20.10;8.82;;;28.10;83.80;;;;;;5053291;28;20020;-72
2023/07/24 11:35:30;;;;;;;12.10;8.43;;;28.10;84.00;;;;;;5052984;28;20474;-72
2023/07/24 11:37:56;;;;;;;18.65;8.10;;;28.10;84.90;;;;;;5053174;28;20031;-72
2023/07/24 11:40:30;;;;;;;14.27;8.35;;;28.10;86.20;;;;;;5053094;28;20391;-72
2023/07/24 11:42:55;;;;;;;17.83;8.65;;;28.10;86.10;;;;;;5051532;28;20064;-72
2023/07/24 11:45:21;;;;;;;15.90;8.90;;;28.10;85.30;;;;;;5052708;28;20052;-72
2023/07/24 11:47:49;;;;;;;15.73;9.15;;;28.10;85.40;;;;;;5052840;28;20029;-72
2023/07/24 11:50:17;;;;;;;13.90;8.25;;;28.10;85.60;;;;;;5052665;28;20029;-72
2023/07/24 11:52:45;;;;;;;11.93;8.45;;;28.20;85.20;;;;;;5052868;28;20409;-72
2023/07/24 11:55:19;;;;;;;13.98;8.57;;;28.20;84.50;;;;;;5052860;28;20025;-72
2023/07/24 11:58:05;;;;;;;14.27;8.60;;;28.20;84.10;;;;;;5052533;28;20096;-72
2023/07/24 12:00:33;;;;;;;14.20;7.88;;;28.30;84.00;;;;;;5052393;28;20424;-72
2023/07/24 12:03:04;;;;;;;16.60;8.48;;;28.30;83.60;;;;;;5052736;28;20021;-72
2023/07/24 12:05:37;;;;;;;18.67;8.05;;;28.30;82.60;;;;;;5052867;28;20109;-72
2023/07/24 12:08:02;;;;;;;15.13;8.38;;;28.40;82.50;;;;;;5052723;28;20545;-72
2023/07/24 12:10:28;;;;;;;17.65;8.70;;;28.40;82.40;;;;;;5052452;28;20033;-72
2023/07/24 12:12:57;;;;;;;20.25;9.30;;;28.40;82.30;;;;;;5052754;28;20040;-72
2023/07/24 12:15:23;;;;;;;13.38;8.48;;;28.40;82.50;;;;;;5052595;28;20086;-72
2023/07/24 12:17:49;;;;;;;14.30;8.45;;;28.50;82.50;;;;;;5054551;28;20052;-72
2023/07/24 12:20:15;;;;;;;16.83;9.05;;;28.50;82.20;;;;;;5052643;28;20025;-72
2023/07/24 12:22:41;;;;;;;14.85;8.63;;;28.50;82.20;;;;;;5052606;28;20166;-72
2023/07/24 12:25:07;;;;;;;13.50;8.85;;;28.60;82.20;;;;;;5052255;28;20522;-72
2023/07/24 12:27:33;;;;;;;15.95;8.77;;;28.60;81.70;;;;;;5051153;28;20070;-72
2023/07/24 12:29:59;;;;;;;16.13;9.23;;;28.60;81.40;;;;;;5052446;28;20032;-72
2023/07/24 12:32:25;;;;;;;17.10;9.88;;;28.60;81.30;;;;;;5052522;28;20025;-72
2023/07/24 12:34:52;;;;;;;14.63;9.32;;;28.50;80.90;;;;;;5052755;28;20032;-72